createdAt,value
2022-11-07T00:00:38.790Z,80.40
2022-11-07T00:03:07.884Z,80.50
2022-11-07T00:05:41.422Z,80.60
2022-11-07T00:08:10.488Z,80.60
2022-11-07T00:10:39.544Z,80.70
2022-11-07T00:13:08.564Z,80.70
2022-11-07T00:15:39.065Z,80.70
2022-11-07T00:18:08.057Z,80.60
2022-11-07T00:20:37.072Z,80.60
2022-11-07T00:23:06.118Z,80.50
2022-11-07T00:25:35.163Z,80.60
2022-11-07T00:28:04.494Z,80.40
2022-11-07T00:30:38.541Z,80.30
2022-11-07T00:33:08.882Z,80.30
2022-11-07T00:35:42.221Z,80.20
2022-11-07T00:38:11.166Z,80.00
2022-11-07T00:40:40.240Z,79.90
2022-11-07T00:43:09.221Z,80.00
2022-11-07T00:45:38.208Z,79.90
2022-11-07T00:48:08.841Z,79.80
2022-11-07T00:50:37.991Z,79.70
2022-11-07T00:53:07.297Z,79.60
2022-11-07T00:55:36.919Z,79.60
2022-11-07T00:58:09.872Z,79.60
2022-11-07T01:00:42.585Z,79.50
2022-11-07T01:03:30.389Z,79.50
2022-11-07T01:06:00.554Z,79.40
2022-11-07T01:08:30.341Z,79.40
2022-11-07T01:11:00.092Z,79.50
2022-11-07T01:13:29.097Z,79.60
2022-11-07T01:15:58.538Z,80.70
2022-11-07T01:18:29.304Z,80.00
2022-11-07T01:20:58.561Z,80.20
2022-11-07T01:23:27.652Z,80.30
2022-11-07T01:25:56.613Z,80.40
2022-11-07T01:28:25.748Z,80.70
2022-11-07T01:30:54.863Z,80.90
2022-11-07T01:33:23.899Z,81.00
2022-11-07T01:35:54.281Z,81.20
2022-11-07T01:38:23.255Z,81.20
2022-11-07T01:41:09.911Z,81.30
2022-11-07T01:43:48.648Z,81.50
2022-11-07T01:46:17.920Z,81.60
2022-11-07T01:48:59.699Z,81.70
2022-11-07T01:51:47.885Z,82.00
2022-11-07T01:54:34.684Z,83.10
2022-11-07T01:57:14.116Z,82.40
2022-11-07T02:00:02.707Z,82.70
2022-11-07T02:03:16.239Z,82.80
2022-11-07T02:05:50.406Z,83.10
2022-11-07T02:08:22.075Z,83.20
2022-11-07T02:10:52.126Z,83.50
2022-11-07T02:13:26.971Z,83.90
2022-11-07T02:15:56.744Z,84.40
2022-11-07T02:18:28.485Z,84.70
2022-11-07T02:20:59.467Z,85.10
2022-11-07T02:23:37.729Z,85.50
2022-11-07T02:26:08.592Z,85.90
2022-11-07T02:28:40.454Z,86.20
2022-11-07T02:31:09.433Z,86.50
2022-11-07T02:33:38.423Z,86.90
2022-11-07T02:36:08.015Z,87.30
2022-11-07T02:38:38.642Z,87.70
2022-11-07T02:41:14.196Z,88.00
2022-11-07T02:43:48.633Z,88.30
2022-11-07T02:46:18.543Z,88.60
2022-11-07T02:48:50.288Z,89.80
2022-11-07T02:51:19.775Z,89.30
2022-11-07T02:53:48.852Z,89.60
2022-11-07T02:56:22.027Z,89.90
2022-11-07T02:58:52.543Z,90.00
2022-11-07T03:01:22.861Z,90.10
2022-11-07T03:03:52.589Z,90.20
2022-11-07T03:06:24.572Z,90.30
2022-11-07T03:08:53.855Z,90.40
2022-11-07T03:11:24.327Z,90.50
2022-11-07T03:13:54.547Z,90.60
2022-11-07T03:16:23.885Z,90.60
2022-11-07T03:18:52.904Z,90.80
2022-11-07T03:21:22.001Z,90.90
2022-11-07T03:23:50.956Z,91.00
2022-11-07T03:26:20.069Z,91.50
2022-11-07T03:28:50.402Z,91.20
2022-11-07T03:31:19.509Z,91.30
2022-11-07T03:33:48.493Z,91.40
2022-11-07T03:36:20.505Z,91.50
2022-11-07T03:38:49.460Z,91.60
2022-11-07T03:41:18.692Z,91.60
2022-11-07T03:43:50.335Z,91.70
2022-11-07T03:46:19.330Z,91.80
2022-11-07T03:48:48.520Z,91.80
2022-11-07T03:51:17.572Z,91.90
2022-11-07T03:53:46.556Z,91.90
2022-11-07T03:56:15.519Z,92.00
2022-11-07T03:58:44.639Z,92.10
2022-11-07T04:01:15.026Z,92.10
2022-11-07T04:03:44.190Z,92.20
2022-11-07T04:06:13.284Z,92.20
2022-11-07T04:08:46.143Z,92.20
2022-11-07T04:11:35.181Z,92.30
2022-11-07T04:14:21.673Z,92.30
2022-11-07T04:17:09.274Z,92.40
2022-11-07T04:19:38.297Z,92.40
2022-11-07T04:22:07.278Z,92.50
2022-11-07T04:24:39.151Z,92.50
2022-11-07T04:27:29.506Z,92.60
2022-11-07T04:29:58.721Z,93.10
2022-11-07T04:32:29.171Z,92.70
2022-11-07T04:34:58.175Z,92.80
2022-11-07T04:37:27.164Z,92.90
2022-11-07T04:39:56.238Z,92.90
2022-11-07T04:42:25.244Z,93.00
2022-11-07T04:44:54.320Z,93.00
2022-11-07T04:47:23.334Z,93.10
2022-11-07T04:49:53.794Z,93.10
2022-11-07T04:52:22.924Z,93.20
2022-11-07T04:54:52.000Z,93.20
2022-11-07T04:57:21.018Z,93.20
2022-11-07T04:59:50.034Z,93.20
2022-11-07T05:02:20.317Z,93.30
2022-11-07T05:04:49.990Z,93.40
2022-11-07T05:07:21.187Z,93.40
2022-11-07T05:09:50.139Z,93.40
2022-11-07T05:12:19.241Z,93.40
2022-11-07T05:14:48.286Z,93.40
2022-11-07T05:17:18.104Z,93.40
2022-11-07T05:19:48.269Z,93.40
2022-11-07T05:22:34.870Z,93.40
2022-11-07T05:25:05.650Z,93.40
2022-11-07T05:27:34.621Z,93.50
2022-11-07T05:30:03.689Z,93.50
2022-11-07T05:32:32.657Z,93.50
2022-11-07T05:35:01.635Z,93.50
2022-11-07T05:37:30.609Z,93.50
2022-11-07T05:39:59.620Z,93.60
2022-11-07T05:42:29.987Z,93.60
2022-11-07T05:44:58.984Z,93.60
2022-11-07T05:47:27.989Z,93.60
2022-11-07T05:49:57.021Z,93.60
2022-11-07T05:52:26.043Z,93.60
2022-11-07T05:54:55.172Z,93.50
2022-11-07T06:00:36.931Z,93.60
2022-11-07T06:03:34.969Z,93.60
2022-11-07T06:06:04.557Z,93.60
2022-11-07T06:08:33.659Z,93.50
2022-11-07T06:11:06.448Z,93.50
2022-11-07T06:13:35.519Z,93.50
2022-11-07T06:16:06.671Z,93.40
2022-11-07T06:18:41.351Z,93.40
2022-11-07T06:21:10.907Z,93.40
2022-11-07T06:23:39.998Z,93.40
2022-11-07T06:26:08.966Z,93.40
2022-11-07T06:28:38.114Z,93.30
2022-11-07T06:31:08.728Z,93.30
2022-11-07T06:33:37.800Z,93.30
2022-11-07T06:36:08.700Z,93.30
2022-11-07T06:38:38.067Z,93.30
2022-11-07T06:41:08.523Z,93.30
2022-11-07T06:43:37.980Z,93.30
2022-11-07T06:46:11.350Z,93.20
2022-11-07T06:48:40.787Z,93.20
2022-11-07T06:51:12.317Z,93.20
2022-11-07T06:53:41.442Z,93.20
2022-11-07T06:56:15.406Z,93.20
2022-11-07T06:58:44.489Z,93.20
2022-11-07T07:01:15.263Z,93.20
2022-11-07T07:03:45.204Z,93.20
2022-11-07T07:06:16.035Z,93.10
2022-11-07T07:08:46.363Z,93.20
2022-11-07T07:11:16.694Z,93.10
2022-11-07T07:13:45.786Z,93.10
2022-11-07T07:16:16.402Z,93.00
2022-11-07T07:18:45.396Z,93.00
2022-11-07T07:21:15.999Z,93.00
2022-11-07T07:23:45.072Z,93.00
2022-11-07T07:26:16.827Z,93.00
2022-11-07T07:28:46.012Z,93.00
2022-11-07T07:31:24.817Z,93.00
2022-11-07T07:33:53.970Z,93.00
2022-11-07T07:36:22.976Z,92.90
2022-11-07T07:38:52.584Z,92.80
2022-11-07T07:41:21.822Z,92.80
2022-11-07T07:43:51.084Z,92.70
2022-11-07T07:46:24.256Z,92.70
2022-11-07T07:48:53.388Z,92.60
2022-11-07T07:51:22.860Z,92.60
2022-11-07T07:53:51.985Z,92.60
2022-11-07T07:56:21.377Z,92.60
2022-11-07T07:58:50.572Z,92.60
2022-11-07T08:01:21.118Z,92.50
2022-11-07T08:04:01.188Z,92.50
2022-11-07T08:06:32.488Z,92.50
2022-11-07T08:09:01.586Z,92.40
2022-11-07T08:11:30.592Z,92.40
2022-11-07T08:14:01.548Z,92.40
2022-11-07T08:16:32.127Z,92.50
2022-11-07T08:19:01.010Z,92.50
2022-11-07T08:21:30.028Z,92.40
2022-11-07T08:23:59.189Z,92.40
2022-11-07T08:26:28.211Z,92.40
2022-11-07T08:28:57.393Z,92.40
2022-11-07T08:31:26.511Z,92.40
2022-11-07T08:33:58.848Z,92.40
2022-11-07T08:36:28.148Z,92.40
2022-11-07T08:38:57.300Z,92.40
2022-11-07T08:41:26.709Z,92.40
2022-11-07T08:43:55.805Z,92.40
2022-11-07T08:46:24.930Z,92.50
2022-11-07T08:48:53.879Z,92.50
2022-11-07T08:51:24.365Z,92.50
2022-11-07T08:53:53.391Z,92.60
2022-11-07T08:56:22.608Z,92.60
2022-11-07T08:58:52.125Z,92.70
2022-11-07T09:01:21.410Z,92.80
2022-11-07T09:03:56.471Z,92.80
2022-11-07T09:06:28.762Z,92.90
2022-11-07T09:08:57.734Z,92.90
2022-11-07T09:11:27.119Z,93.00
2022-11-07T09:13:57.562Z,93.10
2022-11-07T09:16:26.533Z,93.10
2022-11-07T09:18:55.650Z,93.10
2022-11-07T09:21:24.708Z,93.20
2022-11-07T09:23:55.166Z,93.20
2022-11-07T09:26:24.463Z,93.30
2022-11-07T09:28:57.341Z,93.30
2022-11-07T09:31:29.851Z,93.40
2022-11-07T09:33:58.889Z,93.50
2022-11-07T09:36:27.893Z,93.50
2022-11-07T09:38:59.290Z,93.50
2022-11-07T09:41:32.718Z,94.00
2022-11-07T09:44:19.157Z,93.60
2022-11-07T09:46:58.824Z,93.50
2022-11-07T09:49:31.981Z,93.50
2022-11-07T09:52:07.323Z,93.50
2022-11-07T09:54:42.279Z,93.50
2022-11-07T09:57:16.113Z,93.60
2022-11-07T09:59:50.324Z,93.60
2022-11-07T10:02:23.001Z,93.70
2022-11-07T10:04:57.271Z,93.70
2022-11-07T10:07:34.465Z,93.60
2022-11-07T10:10:12.480Z,93.70
2022-11-07T10:13:03.485Z,93.70
2022-11-07T10:15:44.622Z,93.60
2022-11-07T10:18:24.544Z,93.50
2022-11-07T10:21:22.917Z,93.50
2022-11-07T10:23:59.887Z,93.40
2022-11-07T10:26:31.763Z,93.30
2022-11-07T10:29:03.847Z,93.20
2022-11-07T10:31:37.683Z,93.10
2022-11-07T10:34:13.192Z,93.10
2022-11-07T10:36:42.291Z,93.10
2022-11-07T10:39:17.482Z,93.00
2022-11-07T10:42:01.340Z,93.00
2022-11-07T10:44:31.246Z,92.90
2022-11-07T10:47:00.859Z,92.80
2022-11-07T10:49:32.107Z,92.80
2022-11-07T10:52:09.687Z,92.70
2022-11-07T10:54:40.325Z,92.60
2022-11-07T10:57:15.150Z,92.60
2022-11-07T10:59:55.000Z,92.40
2022-11-07T11:02:26.165Z,92.30
2022-11-07T11:04:56.990Z,92.20
2022-11-07T11:07:28.749Z,92.10
2022-11-07T11:09:59.033Z,92.10
2022-11-07T11:12:34.356Z,92.00
2022-11-07T11:15:06.369Z,92.00
2022-11-07T11:17:35.625Z,92.00
2022-11-07T11:20:05.993Z,92.00
2022-11-07T11:22:42.893Z,92.00
2022-11-07T11:25:21.065Z,92.10
2022-11-07T11:27:57.892Z,92.10
2022-11-07T11:30:27.885Z,92.20
2022-11-07T11:33:06.889Z,92.20
2022-11-07T11:35:44.490Z,92.30
2022-11-07T11:38:18.521Z,92.40
2022-11-07T11:40:57.364Z,92.60
2022-11-07T11:43:38.333Z,92.40
2022-11-07T11:46:15.403Z,92.40
2022-11-07T11:48:49.557Z,92.40
2022-11-07T11:51:25.134Z,92.50
2022-11-07T11:53:54.837Z,92.50
2022-11-07T11:56:40.311Z,92.50
2022-11-07T11:59:26.823Z,92.60
2022-11-07T12:02:03.773Z,92.60
2022-11-07T12:04:45.366Z,92.60
2022-11-07T12:07:32.235Z,92.60
2022-11-07T12:10:04.737Z,92.60
2022-11-07T12:12:44.729Z,92.60
2022-11-07T12:15:39.749Z,92.70
2022-11-07T12:18:17.893Z,92.70
2022-11-07T12:20:58.193Z,92.70
2022-11-07T12:23:36.401Z,92.80
2022-11-07T12:26:11.630Z,92.80
2022-11-07T12:28:50.539Z,92.70
2022-11-07T12:31:32.546Z,92.70
2022-11-07T12:34:15.181Z,92.80
2022-11-07T12:36:54.740Z,92.90
2022-11-07T12:39:39.172Z,93.00
2022-11-07T12:42:09.913Z,93.00
2022-11-07T12:44:57.031Z,93.10
2022-11-07T12:47:43.196Z,93.20
2022-11-07T12:50:25.252Z,93.30
2022-11-07T12:53:07.790Z,93.30
2022-11-07T12:55:43.367Z,93.40
2022-11-07T12:58:19.626Z,93.50
2022-11-07T13:00:49.844Z,93.60
2022-11-07T13:03:52.571Z,93.60
2022-11-07T13:06:28.378Z,93.80
2022-11-07T13:09:06.457Z,93.80
2022-11-07T13:11:45.053Z,93.90
2022-11-07T13:14:25.622Z,94.00
2022-11-07T13:17:12.423Z,94.10
2022-11-07T13:19:44.488Z,94.20
2022-11-07T13:22:25.620Z,94.10
2022-11-07T13:24:58.451Z,94.20
2022-11-07T13:27:34.844Z,94.10
2022-11-07T13:30:20.281Z,94.20
2022-11-07T13:32:51.203Z,94.20
2022-11-07T13:35:29.543Z,94.60
2022-11-07T13:38:05.858Z,94.20
2022-11-07T13:40:40.466Z,94.20
2022-11-07T13:43:16.583Z,94.30
2022-11-07T13:45:51.036Z,94.20
2022-11-07T13:48:23.646Z,94.20
2022-11-07T13:51:01.382Z,94.10
2022-11-07T13:53:34.249Z,94.10
2022-11-07T13:56:07.506Z,94.10
2022-11-07T13:58:40.060Z,94.10
2022-11-07T14:01:12.271Z,94.00
2022-11-07T14:03:42.989Z,93.90
2022-11-07T14:06:17.051Z,93.80
2022-11-07T14:08:48.865Z,93.80
2022-11-07T14:11:20.257Z,93.70
2022-11-07T14:13:50.155Z,93.50
2022-11-07T14:16:22.694Z,93.40
2022-11-07T14:18:55.324Z,93.30
2022-11-07T14:21:29.259Z,93.20
2022-11-07T14:23:58.942Z,93.20
2022-11-07T14:26:30.931Z,93.20
2022-11-07T14:29:00.926Z,93.20
2022-11-07T14:31:32.131Z,93.20
2022-11-07T14:34:02.873Z,93.10
2022-11-07T14:36:33.416Z,93.10
2022-11-07T14:39:08.871Z,93.10
2022-11-07T14:41:43.237Z,93.10
2022-11-07T14:44:16.964Z,93.10
2022-11-07T14:46:47.356Z,93.00
2022-11-07T14:49:25.123Z,93.00
2022-11-07T14:51:56.805Z,93.00
2022-11-07T14:54:32.981Z,92.90
2022-11-07T14:57:03.640Z,92.80
2022-11-07T14:59:35.572Z,92.80
2022-11-07T15:02:23.190Z,92.80
2022-11-07T15:04:56.666Z,92.70
2022-11-07T15:07:32.014Z,92.70
2022-11-07T15:10:15.906Z,92.70
2022-11-07T15:12:52.487Z,92.60
2022-11-07T15:15:24.395Z,92.60
2022-11-07T15:17:55.858Z,92.50
2022-11-07T15:20:35.605Z,92.50
2022-11-07T15:23:08.119Z,92.50
2022-11-07T15:25:38.884Z,92.50
2022-11-07T15:28:25.271Z,92.50
2022-11-07T15:30:56.592Z,92.50
2022-11-07T15:33:25.679Z,92.40
2022-11-07T15:35:57.920Z,92.50
2022-11-07T15:38:29.771Z,92.30
2022-11-07T15:40:59.826Z,92.30
2022-11-07T15:43:28.924Z,92.30
2022-11-07T15:45:58.130Z,92.30
2022-11-07T15:48:33.716Z,92.30
2022-11-07T15:51:05.005Z,92.30
2022-11-07T15:53:35.547Z,92.30
2022-11-07T15:56:08.304Z,92.30
2022-11-07T15:58:37.299Z,92.30
2022-11-07T16:01:06.513Z,92.30
2022-11-07T16:03:35.835Z,92.40
2022-11-07T16:06:14.869Z,92.40
2022-11-07T16:08:45.485Z,92.40
2022-11-07T16:11:14.548Z,92.50
2022-11-07T16:13:43.579Z,92.50
2022-11-07T16:16:20.478Z,92.50
2022-11-07T16:18:51.452Z,92.50
2022-11-07T16:21:21.355Z,92.50
2022-11-07T16:23:52.669Z,92.50
2022-11-07T16:26:24.537Z,92.40
2022-11-07T16:28:53.174Z,92.40
2022-11-07T16:31:22.182Z,92.40
2022-11-07T16:33:53.444Z,92.30
2022-11-07T16:36:25.359Z,92.30
2022-11-07T16:38:56.876Z,92.30
2022-11-07T16:41:25.904Z,92.30
2022-11-07T16:43:55.033Z,92.40
2022-11-07T16:46:25.880Z,92.40
2022-11-07T16:48:58.343Z,92.50
2022-11-07T16:51:27.514Z,92.60
2022-11-07T16:53:58.027Z,92.70
2022-11-07T16:56:30.230Z,92.80
2022-11-07T16:59:00.220Z,92.80
2022-11-07T17:01:31.401Z,93.00
2022-11-07T17:04:00.575Z,93.00
2022-11-07T17:06:32.073Z,93.00
2022-11-07T17:09:08.963Z,93.00
2022-11-07T17:11:39.584Z,93.00
2022-11-07T17:14:08.594Z,93.00
2022-11-07T17:16:37.970Z,93.10
2022-11-07T17:19:08.337Z,93.10
2022-11-07T17:21:40.789Z,93.10
2022-11-07T17:24:11.703Z,93.10
2022-11-07T17:26:40.758Z,93.10
2022-11-07T17:29:13.714Z,93.10
2022-11-07T17:31:43.977Z,93.10
2022-11-07T17:34:13.090Z,93.10
2022-11-07T17:36:46.274Z,93.00
2022-11-07T17:39:19.485Z,93.00
2022-11-07T17:41:50.067Z,93.00
2022-11-07T17:44:19.915Z,93.00
2022-11-07T17:46:50.491Z,93.00
2022-11-07T17:49:22.076Z,93.10
2022-11-07T17:51:54.344Z,93.20
2022-11-07T17:54:29.284Z,93.20
2022-11-07T17:56:58.808Z,93.20
2022-11-07T17:59:27.880Z,93.30
2022-11-07T18:01:57.150Z,93.40
2022-11-07T18:04:26.376Z,93.60
2022-11-07T18:06:55.511Z,93.60
2022-11-07T18:09:26.115Z,93.70
2022-11-07T18:11:55.161Z,93.80
2022-11-07T18:14:25.144Z,93.90
2022-11-07T18:16:54.311Z,94.00
2022-11-07T18:19:23.642Z,94.10
2022-11-07T18:21:54.209Z,94.20
2022-11-07T18:24:24.323Z,94.30
2022-11-07T18:26:55.561Z,94.40
2022-11-07T18:29:24.688Z,94.40
2022-11-07T18:31:53.944Z,94.50
2022-11-07T18:34:23.025Z,94.70
2022-11-07T18:36:52.093Z,94.70
2022-11-07T18:39:22.917Z,94.80
2022-11-07T18:41:54.168Z,94.80
2022-11-07T18:44:24.621Z,94.90
2022-11-07T18:46:53.834Z,94.90
2022-11-07T18:49:24.625Z,95.00
2022-11-07T18:51:55.326Z,95.10
2022-11-07T18:54:25.920Z,95.20
2022-11-07T18:56:55.141Z,95.20
2022-11-07T18:59:25.600Z,95.20
2022-11-07T19:01:54.747Z,95.20
2022-11-07T19:04:24.043Z,95.20
2022-11-07T19:06:59.683Z,95.20
2022-11-07T19:09:30.747Z,95.30
2022-11-07T19:12:01.217Z,95.30
2022-11-07T19:14:32.528Z,95.30
2022-11-07T19:17:01.705Z,95.30
2022-11-07T19:19:32.210Z,95.40
2022-11-07T19:22:01.730Z,95.20
2022-11-07T19:24:30.878Z,95.70
2022-11-07T19:27:00.937Z,95.30
2022-11-07T19:29:31.520Z,95.30
2022-11-07T19:32:00.678Z,95.30
2022-11-07T19:34:29.858Z,95.30
2022-11-07T19:36:59.073Z,95.30
2022-11-07T19:39:28.685Z,95.40
2022-11-07T19:41:57.693Z,95.40
2022-11-07T19:44:26.849Z,95.60
2022-11-07T19:46:57.435Z,95.60
2022-11-07T19:49:27.561Z,95.70
2022-11-07T19:51:58.150Z,95.70
2022-11-07T19:54:27.236Z,95.60
2022-11-07T19:56:57.785Z,95.50
2022-11-07T19:59:27.518Z,95.50
2022-11-07T20:02:26.354Z,95.40
2022-11-07T20:04:49.732Z,95.40
2022-11-07T20:07:19.048Z,95.30
2022-11-07T20:09:48.177Z,95.10
2022-11-07T20:12:17.509Z,95.00
2022-11-07T20:14:46.683Z,94.90
2022-11-07T20:17:17.260Z,94.80
2022-11-07T20:19:46.455Z,94.60
2022-11-07T20:22:15.578Z,94.50
2022-11-07T20:24:45.097Z,94.40
2022-11-07T20:27:14.832Z,94.30
2022-11-07T20:29:44.055Z,94.20
2022-11-07T20:32:13.315Z,94.20
2022-11-07T20:34:44.068Z,94.10
2022-11-07T20:37:13.761Z,94.10
2022-11-07T20:39:46.348Z,94.10
2022-11-07T20:42:15.791Z,94.10
2022-11-07T20:44:45.432Z,94.10
2022-11-07T20:47:14.629Z,94.10
2022-11-07T20:49:45.313Z,94.00
2022-11-07T20:52:14.304Z,94.00
2022-11-07T20:54:43.764Z,94.00
2022-11-07T20:57:13.114Z,94.10
2022-11-07T20:59:42.524Z,94.10
2022-11-07T21:02:13.098Z,94.10
2022-11-07T21:05:03.158Z,94.10
2022-11-07T21:07:32.666Z,94.10
2022-11-07T21:10:01.770Z,94.10
2022-11-07T21:12:30.904Z,94.20
2022-11-07T21:15:00.081Z,94.20
2022-11-07T21:17:29.324Z,94.20
2022-11-07T21:19:58.466Z,94.20
2022-11-07T21:22:29.506Z,94.20
2022-11-07T21:25:00.153Z,94.10
2022-11-07T21:27:29.356Z,94.10
2022-11-07T21:29:58.544Z,94.00
2022-11-07T21:32:27.699Z,93.90
2022-11-07T21:34:56.822Z,93.70
2022-11-07T21:37:25.900Z,93.40
2022-11-07T21:39:54.966Z,93.20
2022-11-07T21:42:25.410Z,93.00
2022-11-07T21:44:54.582Z,92.70
2022-11-07T21:47:23.662Z,92.50
2022-11-07T21:49:52.773Z,92.20
2022-11-07T21:52:21.728Z,92.00
2022-11-07T21:54:50.809Z,91.80
2022-11-07T21:57:19.880Z,91.60
2022-11-07T21:59:50.518Z,91.40
2022-11-07T22:02:19.642Z,91.30
2022-11-07T22:04:48.876Z,91.10
2022-11-07T22:07:18.021Z,91.00
2022-11-07T22:09:47.211Z,90.80
2022-11-07T22:12:16.413Z,90.70
2022-11-07T22:14:49.131Z,90.50
2022-11-07T22:17:20.030Z,90.40
2022-11-07T22:19:50.322Z,90.30
2022-11-07T22:22:19.418Z,90.30
2022-11-07T22:24:48.780Z,90.20
2022-11-07T22:27:17.835Z,90.20
2022-11-07T22:29:47.005Z,90.10
2022-11-07T22:32:16.035Z,90.00
2022-11-07T22:34:46.449Z,89.90
2022-11-07T22:37:15.459Z,89.70
2022-11-07T22:39:44.511Z,89.50
2022-11-07T22:42:13.476Z,89.20
2022-11-07T22:44:42.470Z,89.10
2022-11-07T22:47:11.471Z,89.10
2022-11-07T22:49:40.561Z,88.90
2022-11-07T22:52:11.038Z,88.60
2022-11-07T22:54:40.594Z,88.30
2022-11-07T22:57:12.999Z,88.30
2022-11-07T22:59:44.419Z,88.10
2022-11-07T23:02:13.518Z,87.90
2022-11-07T23:04:42.765Z,87.80
2022-11-07T23:07:13.138Z,87.80
2022-11-07T23:09:42.208Z,87.60
2022-11-07T23:12:11.235Z,87.60
2022-11-07T23:14:40.273Z,87.60
2022-11-07T23:17:10.298Z,87.60
2022-11-07T23:19:39.367Z,87.50
2022-11-07T23:22:08.410Z,87.40
2022-11-07T23:24:38.832Z,87.50
2022-11-07T23:27:09.039Z,87.40
2022-11-07T23:29:38.105Z,87.50
2022-11-07T23:32:07.174Z,87.50
2022-11-07T23:34:36.250Z,87.60
2022-11-07T23:37:13.804Z,87.70
2022-11-07T23:39:44.461Z,87.80
2022-11-07T23:42:13.639Z,87.80
2022-11-07T23:44:57.895Z,87.70
2022-11-07T23:47:44.312Z,87.70
2022-11-07T23:50:30.615Z,87.80
2022-11-07T23:52:59.666Z,87.80
2022-11-07T23:55:41.037Z,87.80
2022-11-07T23:58:27.217Z,87.70
